createdAt,value
2018-04-11T00:01:12.189Z,12.10
2018-04-11T00:03:39.667Z,12.10
2018-04-11T00:06:07.953Z,12.10
2018-04-11T00:08:35.436Z,12.10
2018-04-11T00:11:02.906Z,12.10
2018-04-11T00:13:30.394Z,12.10
2018-04-11T00:15:58.384Z,12.10
2018-04-11T00:18:26.608Z,12.10
2018-04-11T00:20:54.193Z,12.00
2018-04-11T00:23:23.181Z,12.00
2018-04-11T00:25:50.665Z,12.00
2018-04-11T00:28:18.916Z,12.10
2018-04-11T00:30:46.359Z,12.10
2018-04-11T00:33:13.832Z,12.10
2018-04-11T00:35:41.312Z,12.00
2018-04-11T00:38:09.540Z,12.10
2018-04-11T00:40:37.046Z,12.00
2018-04-11T00:43:05.267Z,12.00
2018-04-11T00:45:32.749Z,12.00
2018-04-11T00:48:00.237Z,12.00
2018-04-11T00:50:28.461Z,12.00
2018-04-11T00:53:07.918Z,11.90
2018-04-11T00:55:35.372Z,12.00
2018-04-11T00:58:02.851Z,12.00
2018-04-11T01:00:31.342Z,11.90
2018-04-11T01:02:59.574Z,11.90
2018-04-11T01:05:27.033Z,11.90
2018-04-11T01:07:54.540Z,11.90
2018-04-11T01:10:22.007Z,11.80
2018-04-11T01:12:49.525Z,11.80
2018-04-11T01:15:16.985Z,11.80
2018-04-11T01:17:45.218Z,11.80
2018-04-11T01:20:12.693Z,11.80
2018-04-11T01:22:40.161Z,11.80
2018-04-11T01:25:07.617Z,11.80
2018-04-11T01:27:35.076Z,11.70
2018-04-11T01:30:02.561Z,11.70
2018-04-11T01:32:30.794Z,11.60
2018-04-11T01:34:59.016Z,11.60
2018-04-11T01:37:26.501Z,11.60
2018-04-11T01:39:53.993Z,11.60
2018-04-11T01:42:22.241Z,11.40
2018-04-11T01:44:49.717Z,11.40
2018-04-11T01:47:17.188Z,11.40
2018-04-11T01:49:44.655Z,11.30
2018-04-11T01:52:12.892Z,11.30
2018-04-11T01:54:40.366Z,11.20
2018-04-11T01:57:07.986Z,11.20
2018-04-11T01:59:35.465Z,11.20
2018-04-11T02:02:02.930Z,11.20
2018-04-11T02:04:30.414Z,11.20
2018-04-11T02:06:58.653Z,11.20
2018-04-11T02:09:26.115Z,11.10
2018-04-11T02:11:53.616Z,11.10
2018-04-11T02:14:21.849Z,11.10
2018-04-11T02:16:49.315Z,11.00
2018-04-11T02:19:17.817Z,11.00
2018-04-11T02:21:45.315Z,11.00
2018-04-11T02:24:12.805Z,11.00
2018-04-11T02:26:40.281Z,10.90
2018-04-11T02:29:07.752Z,10.90
2018-04-11T02:31:35.995Z,10.90
2018-04-11T02:34:03.470Z,10.80
2018-04-11T02:36:30.935Z,10.90
2018-04-11T02:38:58.402Z,10.90
2018-04-11T02:41:26.640Z,10.80
2018-04-11T02:43:54.093Z,10.80
2018-04-11T02:46:21.640Z,10.70
2018-04-11T02:48:49.106Z,10.70
2018-04-11T02:51:16.609Z,10.70
2018-04-11T02:53:44.833Z,10.60
2018-04-11T02:56:12.297Z,10.50
2018-04-11T02:58:39.769Z,10.60
2018-04-11T03:01:07.249Z,10.60
2018-04-11T03:03:35.544Z,10.60
2018-04-11T03:06:03.022Z,10.60
2018-04-11T03:08:30.492Z,10.70
2018-04-11T03:10:57.961Z,10.70
2018-04-11T03:13:25.423Z,10.80
2018-04-11T03:15:52.884Z,10.80
2018-04-11T03:18:20.372Z,10.90
2018-04-11T03:20:48.613Z,11.10
2018-04-11T03:23:16.422Z,11.10
2018-04-11T03:25:43.907Z,11.20
2018-04-11T03:28:11.369Z,11.20
2018-04-11T03:30:38.837Z,11.30
2018-04-11T03:33:06.309Z,11.30
2018-04-11T03:35:33.774Z,11.30
2018-04-11T03:38:01.246Z,11.30
2018-04-11T03:40:29.485Z,11.40
2018-04-11T03:42:56.943Z,11.40
2018-04-11T03:45:24.397Z,11.40
2018-04-11T03:47:52.633Z,11.50
2018-04-11T03:50:20.104Z,11.40
2018-04-11T03:52:47.590Z,11.50
2018-04-11T03:55:15.100Z,11.50
2018-04-11T03:57:42.552Z,11.60
2018-04-11T04:00:10.020Z,11.50
2018-04-11T04:02:37.479Z,11.60
2018-04-11T04:05:05.043Z,11.60
2018-04-11T04:07:33.205Z,11.60
2018-04-11T04:10:01.434Z,11.70
2018-04-11T04:12:28.896Z,11.70
2018-04-11T04:15:08.235Z,11.70
2018-04-11T04:17:47.723Z,11.70
2018-04-11T04:20:27.141Z,11.70
2018-04-11T04:22:54.605Z,11.70
2018-04-11T04:25:22.060Z,11.70
2018-04-11T04:27:49.531Z,11.70
2018-04-11T04:30:17.006Z,11.70
2018-04-11T04:32:44.479Z,11.80
2018-04-11T04:35:11.952Z,11.80
2018-04-11T04:37:39.428Z,11.80
2018-04-11T04:40:07.656Z,11.90
2018-04-11T04:42:35.241Z,11.90
2018-04-11T04:45:02.722Z,11.90
2018-04-11T04:47:30.957Z,11.90
2018-04-11T04:49:58.424Z,11.90
2018-04-11T04:52:25.901Z,12.00
2018-04-11T04:54:54.115Z,11.90
2018-04-11T04:57:21.572Z,11.90
2018-04-11T04:59:49.052Z,12.00
2018-04-11T05:02:17.164Z,12.00
2018-04-11T05:04:45.385Z,12.00
2018-04-11T05:07:12.863Z,11.90
2018-04-11T05:09:40.324Z,12.00
2018-04-11T05:12:07.796Z,12.00
2018-04-11T05:14:35.257Z,12.10
2018-04-11T05:17:03.526Z,12.00
2018-04-11T05:19:30.981Z,12.00
2018-04-11T05:21:58.448Z,12.10
2018-04-11T05:24:26.668Z,12.20
2018-04-11T05:26:54.141Z,12.10
2018-04-11T05:29:21.608Z,12.10
2018-04-11T05:31:49.071Z,12.20
2018-04-11T05:34:16.576Z,12.20
2018-04-11T05:36:44.055Z,12.20
2018-04-11T05:39:11.559Z,12.30
2018-04-11T05:41:39.017Z,12.30
2018-04-11T05:44:07.264Z,12.40
2018-04-11T05:46:34.737Z,12.40
2018-04-11T05:49:02.204Z,12.40
2018-04-11T05:51:29.678Z,12.50
2018-04-11T05:53:57.917Z,12.60
2018-04-11T05:56:25.380Z,12.50
2018-04-11T05:58:52.841Z,12.50
2018-04-11T06:01:20.309Z,12.50
2018-04-11T06:03:47.769Z,12.50
2018-04-11T06:06:16.011Z,12.50
2018-04-11T06:08:43.497Z,12.50
2018-04-11T06:11:10.964Z,12.60
2018-04-11T06:13:39.192Z,12.70
2018-04-11T06:16:06.673Z,12.70
2018-04-11T06:18:34.124Z,12.70
2018-04-11T06:21:01.587Z,12.80
2018-04-11T06:23:29.054Z,12.70
2018-04-11T06:25:56.560Z,12.60
2018-04-11T06:28:24.017Z,12.40
2018-04-11T06:30:51.496Z,12.40
2018-04-11T06:33:18.949Z,12.40
2018-04-11T06:35:46.408Z,12.40
2018-04-11T06:38:13.879Z,12.40
2018-04-11T06:40:41.339Z,12.30
2018-04-11T06:43:08.820Z,12.30
2018-04-11T06:45:37.046Z,12.30
2018-04-11T06:48:04.523Z,12.30
2018-04-11T06:50:31.981Z,12.30
2018-04-11T06:52:59.444Z,12.30
2018-04-11T06:55:26.920Z,12.30
2018-04-11T06:57:55.170Z,12.40
2018-04-11T07:00:22.645Z,12.40
2018-04-11T07:02:50.104Z,12.40
2018-04-11T07:05:18.348Z,12.50
2018-04-11T07:07:45.817Z,12.50
2018-04-11T07:10:14.802Z,12.60
2018-04-11T07:12:42.256Z,12.60
2018-04-11T07:15:09.716Z,12.80
2018-04-11T07:17:37.196Z,12.90
2018-04-11T07:20:04.654Z,13.10
2018-04-11T07:22:32.886Z,13.10
2018-04-11T07:25:00.340Z,13.10
2018-04-11T07:27:27.821Z,13.20
2018-04-11T07:29:55.288Z,13.30
2018-04-11T07:32:22.760Z,13.40
2018-04-11T07:34:50.984Z,13.30
2018-04-11T07:37:19.222Z,13.40
2018-04-11T07:39:47.456Z,13.40
2018-04-11T07:42:14.926Z,13.40
2018-04-11T07:44:42.401Z,13.60
2018-04-11T07:47:10.710Z,13.70
2018-04-11T07:49:38.516Z,13.70
2018-04-11T07:52:05.980Z,13.80
2018-04-11T07:54:34.974Z,13.90
2018-04-11T07:57:02.399Z,13.90
2018-04-11T07:59:29.878Z,13.90
2018-04-11T08:01:57.364Z,14.00
2018-04-11T08:04:25.626Z,14.20
2018-04-11T08:06:53.072Z,14.10
2018-04-11T08:09:20.537Z,14.20
2018-04-11T08:11:48.011Z,14.40
2018-04-11T08:14:16.224Z,14.50
2018-04-11T08:16:43.684Z,14.50
2018-04-11T08:19:11.372Z,14.50
2018-04-11T08:21:38.833Z,14.60
2018-04-11T08:24:05.814Z,14.70
2018-04-11T08:26:34.046Z,14.90
2018-04-11T08:29:01.511Z,14.90
2018-04-11T08:31:29.004Z,15.00
2018-04-11T08:33:56.540Z,15.00
2018-04-11T08:36:24.044Z,15.20
2018-04-11T08:38:51.500Z,15.20
2018-04-11T08:41:19.741Z,15.10
2018-04-11T08:43:47.980Z,15.00
2018-04-11T08:46:15.468Z,15.00
2018-04-11T08:48:43.713Z,15.20
2018-04-11T08:51:11.189Z,15.20
2018-04-11T08:53:38.649Z,15.30
2018-04-11T08:56:06.133Z,15.10
2018-04-11T08:58:33.596Z,14.90
2018-04-11T09:01:01.053Z,14.80
2018-04-11T09:03:28.528Z,14.80
2018-04-11T09:05:55.998Z,14.70
2018-04-11T09:08:23.485Z,14.60
2018-04-11T09:10:50.972Z,14.80
2018-04-11T09:13:18.441Z,15.00
2018-04-11T09:15:45.896Z,15.10
2018-04-11T09:18:13.368Z,15.20
2018-04-11T09:20:40.829Z,15.00
2018-04-11T09:23:08.306Z,14.90
2018-04-11T09:25:35.779Z,14.90
2018-04-11T09:28:03.241Z,14.90
2018-04-11T09:30:30.727Z,15.00
2018-04-11T09:32:58.961Z,15.10
2018-04-11T09:35:26.423Z,15.10
2018-04-11T09:37:53.896Z,15.20
2018-04-11T09:40:22.115Z,15.40
2018-04-11T09:42:49.598Z,15.40
2018-04-11T09:45:17.057Z,15.60
2018-04-11T09:47:44.532Z,15.70
2018-04-11T09:50:11.985Z,15.70
2018-04-11T09:52:39.444Z,15.70
2018-04-11T09:55:06.917Z,15.80
2018-04-11T09:57:35.170Z,15.80
2018-04-11T10:00:02.633Z,15.80
2018-04-11T10:02:35.846Z,15.90
2018-04-11T10:05:04.109Z,15.80
2018-04-11T10:07:32.332Z,15.80
2018-04-11T10:09:59.789Z,15.80
2018-04-11T10:12:27.274Z,15.90
2018-04-11T10:14:54.745Z,15.80
2018-04-11T10:17:22.220Z,15.70
2018-04-11T10:19:50.469Z,15.60
2018-04-11T10:22:17.926Z,15.60
2018-04-11T10:24:45.396Z,15.50
2018-04-11T10:27:12.866Z,15.30
2018-04-11T10:29:42.009Z,15.30
2018-04-11T10:32:09.464Z,15.30
2018-04-11T10:34:37.351Z,15.10
2018-04-11T10:37:04.828Z,15.10
2018-04-11T10:39:32.337Z,15.10
2018-04-11T10:41:59.799Z,15.10
2018-04-11T10:44:27.252Z,15.20
2018-04-11T10:46:54.762Z,15.30
2018-04-11T10:49:22.220Z,15.20
2018-04-11T10:51:50.448Z,15.70
2018-04-11T10:54:17.909Z,15.70
2018-04-11T10:56:45.393Z,15.90
2018-04-11T10:59:13.705Z,16.00
2018-04-11T11:01:41.169Z,16.20
2018-04-11T11:04:08.631Z,16.30
2018-04-11T11:06:36.115Z,16.40
2018-04-11T11:09:03.600Z,16.40
2018-04-11T11:11:31.076Z,16.60
2018-04-11T11:13:59.356Z,17.00
2018-04-11T11:16:35.349Z,17.00
2018-04-11T11:19:02.821Z,17.00
2018-04-11T11:21:30.283Z,16.90
2018-04-11T11:23:57.792Z,16.90
2018-04-11T11:26:25.314Z,16.80
2018-04-11T11:28:52.781Z,17.00
2018-04-11T11:31:20.249Z,17.10
2018-04-11T11:33:48.468Z,17.50
2018-04-11T11:36:15.936Z,17.50
2018-04-11T11:38:43.454Z,17.70
2018-04-11T11:41:11.675Z,17.70
2018-04-11T11:43:39.160Z,17.70
2018-04-11T11:46:06.622Z,17.80
2018-04-11T11:48:34.849Z,17.40
2018-04-11T11:51:02.317Z,17.40
2018-04-11T11:53:29.790Z,17.50
2018-04-11T11:55:57.250Z,17.70
2018-04-11T11:58:24.715Z,17.70
2018-04-11T12:00:52.184Z,17.70
2018-04-11T12:03:20.417Z,17.60
2018-04-11T12:05:48.293Z,17.60
2018-04-11T12:08:15.779Z,17.50
2018-04-11T12:10:44.018Z,17.30
2018-04-11T12:13:11.507Z,17.20
2018-04-11T12:15:38.963Z,17.30
2018-04-11T12:18:07.202Z,17.60
2018-04-11T12:20:34.669Z,17.50
2018-04-11T12:23:02.145Z,17.50
2018-04-11T12:25:29.624Z,17.70
2018-04-11T12:27:58.168Z,17.70
2018-04-11T12:30:25.645Z,17.70
2018-04-11T12:32:53.616Z,17.80
2018-04-11T12:35:21.091Z,17.60
2018-04-11T12:37:49.323Z,18.00
2018-04-11T12:40:16.816Z,18.00
2018-04-11T12:42:45.063Z,18.60
2018-04-11T12:45:12.524Z,18.60
2018-04-11T12:47:39.994Z,18.80
2018-04-11T12:50:07.464Z,19.10
2018-04-11T12:52:36.344Z,19.40
2018-04-11T12:55:03.820Z,19.40
2018-04-11T12:57:32.045Z,19.30
2018-04-11T12:59:59.603Z,19.30
2018-04-11T13:02:27.139Z,19.30
2018-04-11T13:04:54.672Z,19.30
2018-04-11T13:07:22.935Z,19.20
2018-04-11T13:09:51.154Z,19.20
2018-04-11T13:12:18.629Z,19.10
2018-04-11T13:14:46.092Z,19.10
2018-04-11T13:17:13.560Z,19.00
2018-04-11T13:19:41.016Z,18.90
2018-04-11T13:22:08.472Z,18.80
2018-04-11T13:24:35.956Z,18.70
2018-04-11T13:27:04.199Z,18.70
2018-04-11T13:29:31.676Z,18.70
2018-04-11T13:31:59.337Z,18.70
2018-04-11T13:34:26.801Z,18.70
2018-04-11T13:36:55.060Z,18.90
2018-04-11T13:39:22.521Z,18.90
2018-04-11T13:41:49.988Z,19.00
2018-04-11T13:44:18.248Z,18.80
2018-04-11T13:46:45.716Z,18.80
2018-04-11T13:49:13.951Z,19.10
2018-04-11T13:51:41.421Z,19.10
2018-04-11T13:54:08.889Z,19.10
2018-04-11T13:56:36.374Z,19.10
2018-04-11T13:59:04.597Z,18.90
2018-04-11T14:01:32.065Z,18.80
2018-04-11T14:03:59.797Z,18.70
2018-04-11T14:06:27.252Z,18.60
2018-04-11T14:08:54.733Z,18.60
2018-04-11T14:11:22.195Z,18.70
2018-04-11T14:13:49.673Z,18.60
2018-04-11T14:16:17.132Z,18.50
2018-04-11T14:18:44.589Z,18.30
2018-04-11T14:21:12.106Z,18.20
2018-04-11T14:23:39.573Z,18.10
2018-04-11T14:26:07.079Z,18.00
2018-04-11T14:28:35.308Z,18.00
2018-04-11T14:31:02.769Z,18.00
2018-04-11T14:33:30.247Z,18.10
2018-04-11T14:35:58.604Z,18.20
2018-04-11T14:38:26.110Z,18.20
2018-04-11T14:40:54.348Z,18.40
2018-04-11T14:43:21.839Z,18.40
2018-04-11T14:45:49.318Z,18.50
2018-04-11T14:48:17.662Z,18.60
2018-04-11T14:50:45.915Z,18.60
2018-04-11T14:53:13.369Z,18.60
2018-04-11T14:55:40.840Z,18.60
2018-04-11T14:58:08.330Z,18.60
2018-04-11T15:00:35.792Z,18.70
2018-04-11T15:03:03.272Z,18.70
2018-04-11T15:05:30.736Z,18.80
2018-04-11T15:07:59.150Z,18.80
2018-04-11T15:10:26.665Z,18.80
2018-04-11T15:12:54.121Z,18.80
2018-04-11T15:15:21.602Z,18.70
2018-04-11T15:17:49.068Z,18.70
2018-04-11T15:20:16.536Z,18.60
2018-04-11T15:22:44.789Z,18.50
2018-04-11T15:25:12.265Z,18.50
2018-04-11T15:27:39.737Z,18.20
2018-04-11T15:30:07.249Z,18.10
2018-04-11T15:32:34.700Z,17.80
2018-04-11T15:35:02.169Z,17.90
2018-04-11T15:37:29.640Z,17.90
2018-04-11T15:39:57.113Z,18.00
2018-04-11T15:42:25.348Z,18.10
2018-04-11T15:44:53.544Z,18.10
2018-04-11T15:47:21.017Z,18.20
2018-04-11T15:49:48.475Z,18.00
2018-04-11T15:52:16.719Z,18.00
2018-04-11T15:54:44.176Z,18.00
2018-04-11T15:57:11.641Z,17.90
2018-04-11T15:59:39.945Z,17.70
2018-04-11T16:02:08.172Z,17.30
2018-04-11T16:04:35.668Z,17.30
2018-04-11T16:07:03.143Z,17.50
2018-04-11T16:09:31.365Z,17.60
2018-04-11T16:11:58.849Z,17.50
2018-04-11T16:14:26.315Z,17.60
2018-04-11T16:16:53.793Z,17.50
2018-04-11T16:19:22.025Z,17.30
2018-04-11T16:21:49.493Z,17.30
2018-04-11T16:24:16.975Z,17.30
2018-04-11T16:26:45.204Z,17.40
2018-04-11T16:29:12.664Z,17.40
2018-04-11T16:31:40.136Z,17.30
2018-04-11T16:34:07.628Z,17.30
2018-04-11T16:36:35.094Z,17.20
2018-04-11T16:39:02.615Z,17.10
2018-04-11T16:41:30.092Z,17.00
2018-04-11T16:43:58.326Z,16.70
2018-04-11T16:46:25.829Z,16.70
2018-04-11T16:48:54.076Z,16.70
2018-04-11T16:51:21.579Z,16.70
2018-04-11T16:53:49.037Z,16.70
2018-04-11T16:56:17.012Z,16.70
2018-04-11T16:58:44.472Z,16.70
2018-04-11T17:01:11.937Z,16.70
2018-04-11T17:03:39.458Z,16.70
2018-04-11T17:06:06.884Z,16.70
2018-04-11T17:08:34.365Z,16.70
2018-04-11T17:11:02.617Z,16.50
2018-04-11T17:13:30.071Z,16.50
2018-04-11T17:15:57.560Z,16.40
2018-04-11T17:18:25.782Z,16.30
2018-04-11T17:21:05.808Z,16.20
2018-04-11T17:23:45.898Z,16.20
2018-04-11T17:26:25.141Z,16.20
2018-04-11T17:29:04.588Z,16.10
2018-04-11T17:31:32.051Z,16.00
2018-04-11T17:33:59.514Z,16.00
2018-04-11T17:36:27.772Z,16.00
2018-04-11T17:38:55.243Z,15.90
2018-04-11T17:41:23.467Z,15.90
2018-04-11T17:43:50.938Z,15.90
2018-04-11T17:46:18.396Z,15.90
2018-04-11T17:48:45.859Z,15.90
2018-04-11T17:51:13.368Z,15.90
2018-04-11T17:53:40.839Z,15.80
2018-04-11T17:56:08.297Z,15.70
2018-04-11T17:58:36.073Z,15.80
2018-04-11T18:01:03.534Z,15.80
2018-04-11T18:03:31.015Z,15.80
2018-04-11T18:05:58.508Z,15.80
2018-04-11T18:08:26.037Z,15.70
2018-04-11T18:10:53.456Z,15.70
2018-04-11T18:13:20.982Z,15.60
2018-04-11T18:15:48.457Z,15.70
2018-04-11T18:18:16.021Z,15.50
2018-04-11T18:20:43.488Z,15.50
2018-04-11T18:23:10.946Z,15.50
2018-04-11T18:25:38.425Z,15.50
2018-04-11T18:28:05.913Z,15.40
2018-04-11T18:30:33.365Z,15.40
2018-04-11T18:33:01.629Z,15.30
2018-04-11T18:35:29.095Z,15.30
2018-04-11T18:37:57.160Z,15.30
2018-04-11T18:40:24.628Z,15.20
2018-04-11T18:42:53.734Z,15.00
2018-04-11T18:45:21.984Z,15.00
2018-04-11T18:47:49.456Z,15.00
2018-04-11T18:50:17.688Z,14.90
2018-04-11T18:52:45.152Z,14.90
2018-04-11T18:55:12.685Z,14.80
2018-04-11T18:57:40.168Z,14.80
2018-04-11T19:00:08.441Z,14.80
2018-04-11T19:02:35.967Z,14.70
2018-04-11T19:05:03.433Z,14.70
2018-04-11T19:07:30.893Z,14.70
2018-04-11T19:09:58.389Z,14.70
2018-04-11T19:12:25.852Z,14.60
2018-04-11T19:14:53.326Z,14.40
2018-04-11T19:17:21.582Z,14.40
2018-04-11T19:19:49.050Z,14.40
2018-04-11T19:22:17.301Z,14.30
2018-04-11T19:24:44.776Z,14.30
2018-04-11T19:27:12.237Z,14.30
2018-04-11T19:29:40.465Z,14.20
2018-04-11T19:32:07.945Z,14.20
2018-04-11T19:34:35.416Z,14.20
2018-04-11T19:37:02.933Z,14.10
2018-04-11T19:39:30.394Z,14.20
2018-04-11T19:41:57.854Z,14.20
2018-04-11T19:44:26.322Z,14.20
2018-04-11T19:46:54.653Z,14.20
2018-04-11T19:49:22.109Z,14.30
2018-04-11T19:51:49.576Z,14.30
2018-04-11T19:54:17.831Z,14.30
2018-04-11T19:56:45.346Z,14.30
2018-04-11T19:59:12.808Z,14.30
2018-04-11T20:01:40.294Z,14.30
2018-04-11T20:04:07.768Z,14.30
2018-04-11T20:06:35.241Z,14.30
2018-04-11T20:09:03.504Z,14.20
2018-04-11T20:11:30.985Z,14.20
2018-04-11T20:13:58.491Z,14.20
2018-04-11T20:16:25.990Z,14.30
2018-04-11T20:18:54.309Z,14.20
2018-04-11T20:21:21.764Z,14.20
2018-04-11T20:23:49.267Z,14.20
2018-04-11T20:26:16.734Z,14.20
2018-04-11T20:28:45.005Z,14.20
2018-04-11T20:31:12.991Z,14.20
2018-04-11T20:33:41.236Z,14.20
2018-04-11T20:36:08.716Z,14.10
2018-04-11T20:38:36.948Z,14.10
2018-04-11T20:41:04.440Z,14.10
2018-04-11T20:43:32.664Z,14.10
2018-04-11T20:46:00.160Z,14.10
2018-04-11T20:48:27.643Z,14.10
2018-04-11T20:50:55.886Z,14.00
2018-04-11T20:53:23.348Z,14.00
2018-04-11T20:55:50.825Z,14.00
2018-04-11T20:58:19.092Z,14.00
2018-04-11T21:00:47.334Z,14.00
2018-04-11T21:03:14.812Z,14.00
2018-04-11T21:05:42.305Z,14.00
2018-04-11T21:08:09.853Z,14.00
2018-04-11T21:10:38.080Z,14.00
2018-04-11T21:13:05.563Z,14.00
2018-04-11T21:15:33.040Z,14.00
2018-04-11T21:18:01.347Z,14.00
2018-04-11T21:20:28.800Z,13.90
2018-04-11T21:22:56.287Z,14.00
2018-04-11T21:25:23.744Z,14.00
2018-04-11T21:27:51.225Z,14.00
2018-04-11T21:30:18.688Z,14.00
2018-04-11T21:32:46.910Z,14.00
2018-04-11T21:35:14.381Z,14.00
2018-04-11T21:37:41.853Z,14.00
2018-04-11T21:40:09.320Z,14.00
2018-04-11T21:42:37.914Z,14.00
2018-04-11T21:45:05.373Z,14.00
2018-04-11T21:47:33.610Z,14.00
2018-04-11T21:50:01.112Z,13.90
2018-04-11T21:52:28.623Z,13.90
2018-04-11T21:54:56.093Z,13.90
2018-04-11T21:57:23.562Z,13.90
2018-04-11T21:59:51.022Z,13.90
2018-04-11T22:02:18.503Z,13.90
2018-04-11T22:04:46.732Z,13.90
2018-04-11T22:07:14.192Z,13.90
2018-04-11T22:09:41.686Z,13.80
2018-04-11T22:12:09.918Z,13.80
2018-04-11T22:14:37.788Z,13.80
2018-04-11T22:17:05.264Z,13.80
2018-04-11T22:19:32.732Z,13.80
2018-04-11T22:22:00.239Z,13.80
2018-04-11T22:24:27.696Z,13.80
2018-04-11T22:26:55.164Z,13.70
2018-04-11T22:29:22.654Z,13.70
2018-04-11T22:31:50.620Z,13.70
2018-04-11T22:34:18.091Z,13.70
2018-04-11T22:36:46.335Z,13.70
2018-04-11T22:39:13.811Z,13.70
2018-04-11T22:41:41.279Z,13.70
2018-04-11T22:44:09.516Z,13.70
2018-04-11T22:46:36.972Z,13.60
2018-04-11T22:49:04.445Z,13.70
2018-04-11T22:51:31.906Z,13.60
2018-04-11T22:53:59.377Z,13.60
2018-04-11T22:56:27.623Z,13.60
2018-04-11T22:58:55.080Z,13.60
2018-04-11T23:01:22.550Z,13.60
2018-04-11T23:03:50.029Z,13.60
2018-04-11T23:06:18.270Z,13.60
2018-04-11T23:08:45.742Z,13.60
2018-04-11T23:11:13.224Z,13.60
2018-04-11T23:13:41.462Z,13.60
2018-04-11T23:16:08.918Z,13.60
2018-04-11T23:18:36.389Z,13.60
2018-04-11T23:21:03.849Z,13.60
2018-04-11T23:23:31.329Z,13.60
2018-04-11T23:25:59.570Z,13.50
2018-04-11T23:28:27.069Z,13.50
2018-04-11T23:30:54.520Z,13.50
2018-04-11T23:33:22.752Z,13.40
2018-04-11T23:35:50.229Z,13.30
2018-04-11T23:38:17.697Z,13.40
2018-04-11T23:40:45.937Z,13.20
2018-04-11T23:43:13.417Z,13.20
2018-04-11T23:45:40.882Z,13.20
2018-04-11T23:48:09.115Z,13.10
2018-04-11T23:50:36.621Z,13.10
2018-04-11T23:53:04.857Z,13.10
2018-04-11T23:55:32.321Z,13.10
2018-04-11T23:57:59.796Z,13.00
